Terminal Aerodrome Forecast
Issued by NWS

Home | Current Version | Previous Version | Text Only | Print | Product List | Glossary On
Versions: 1 2 3 4 5 6 7 8 9 10 11 12 13 14 15
000
FTUS42 KTBW 282300
TAFPGD
TAF
KPGD 282339Z 2900/2924 27009KT P6SM SCT030 SCT250
     FM290900 25005KT P6SM VCSH SCT020 BKN250
     FM291200 25007KT P6SM VCTS SCT020CB BKN035
     FM291700 27010G20KT P6SM VCTS SCT025CB BKN045=

USA.gov is the U.S. government's official web portal to all federal, state and local government web resources and services.